sensor_id;sensor_type;location;lat;lon;timestamp;pressure;altitude;pressure_sealevel;temperature;humidity
250;BME280;109;19.806;-70.704;2022-09-03T00:00:48;101318.00;;;27.40;61.45
250;BME280;109;19.806;-70.704;2022-09-03T00:03:19;101316.34;;;27.37;61.28
250;BME280;109;19.806;-70.704;2022-09-03T00:06:17;101324.78;;;27.47;60.74
250;BME280;109;19.806;-70.704;2022-09-03T00:14:21;101326.16;;;27.38;60.25
250;BME280;109;19.806;-70.704;2022-09-03T00:16:53;101327.72;;;27.42;60.76
250;BME280;109;19.806;-70.704;2022-09-03T00:19:27;101329.75;;;27.54;60.52
250;BME280;109;19.806;-70.704;2022-09-03T00:22:01;101328.34;;;27.47;60.53
250;BME280;109;19.806;-70.704;2022-09-03T00:24:34;101340.59;;;27.53;60.18
250;BME280;109;19.806;-70.704;2022-09-03T00:27:05;101336.66;;;27.59;60.72
250;BME280;109;19.806;-70.704;2022-09-03T00:29:38;101334.75;;;27.61;60.66
250;BME280;109;19.806;-70.704;2022-09-03T00:32:17;101337.91;;;27.69;60.42
250;BME280;109;19.806;-70.704;2022-09-03T00:34:53;101348.19;;;27.61;59.86
250;BME280;109;19.806;-70.704;2022-09-03T00:37:22;101348.38;;;27.58;59.68
250;BME280;109;19.806;-70.704;2022-09-03T00:39:48;101352.38;;;27.66;59.95
250;BME280;109;19.806;-70.704;2022-09-03T00:45:49;101360.19;;;27.55;60.17
250;BME280;109;19.806;-70.704;2022-09-03T00:48:33;101363.22;;;27.49;60.08
250;BME280;109;19.806;-70.704;2022-09-03T00:51:38;101359.81;;;27.45;59.84
250;BME280;109;19.806;-70.704;2022-09-03T00:54:31;101359.66;;;27.48;60.26
250;BME280;109;19.806;-70.704;2022-09-03T00:57:27;101352.88;;;27.41;60.32
250;BME280;109;19.806;-70.704;2022-09-03T01:00:12;101358.06;;;27.44;59.93
250;BME280;109;19.806;-70.704;2022-09-03T01:11:58;101371.81;;;27.55;59.79
250;BME280;109;19.806;-70.704;2022-09-03T01:15:06;101373.44;;;27.58;60.16
250;BME280;109;19.806;-70.704;2022-09-03T01:27:00;101377.84;;;27.43;60.31
250;BME280;109;19.806;-70.704;2022-09-03T01:30:07;101376.09;;;27.42;60.48
250;BME280;109;19.806;-70.704;2022-09-03T01:33:10;101383.13;;;27.45;60.68
250;BME280;109;19.806;-70.704;2022-09-03T01:39:02;101391.44;;;27.40;60.65
250;BME280;109;19.806;-70.704;2022-09-03T01:41:56;101396.13;;;27.37;60.98
250;BME280;109;19.806;-70.704;2022-09-03T01:56:37;101411.22;;;27.39;61.17
250;BME280;109;19.806;-70.704;2022-09-03T02:02:14;101414.16;;;27.35;60.84
250;BME280;109;19.806;-70.704;2022-09-03T02:05:03;101425.56;;;27.23;61.00
250;BME280;109;19.806;-70.704;2022-09-03T02:07:48;101432.75;;;27.22;60.78
250;BME280;109;19.806;-70.704;2022-09-03T02:10:42;101438.56;;;27.14;61.12
250;BME280;109;19.806;-70.704;2022-09-03T02:13:34;101429.94;;;27.08;60.98
250;BME280;109;19.806;-70.704;2022-09-03T02:16:19;101432.47;;;27.11;61.27
250;BME280;109;19.806;-70.704;2022-09-03T02:19:02;101437.84;;;27.11;61.69
250;BME280;109;19.806;-70.704;2022-09-03T02:21:49;101432.53;;;27.09;61.34
250;BME280;109;19.806;-70.704;2022-09-03T02:24:24;101432.69;;;27.06;61.15
250;BME280;109;19.806;-70.704;2022-09-03T02:27:04;101428.47;;;27.02;60.96
250;BME280;109;19.806;-70.704;2022-09-03T02:29:31;101432.97;;;27.02;61.34
250;BME280;109;19.806;-70.704;2022-09-03T02:32:18;101431.22;;;27.01;61.24
250;BME280;109;19.806;-70.704;2022-09-03T02:34:58;101434.69;;;27.03;61.03
250;BME280;109;19.806;-70.704;2022-09-03T02:37:24;101433.91;;;27.01;60.80
250;BME280;109;19.806;-70.704;2022-09-03T02:40:05;101431.59;;;26.93;60.46
250;BME280;109;19.806;-70.704;2022-09-03T02:42:35;101436.97;;;26.93;60.35
250;BME280;109;19.806;-70.704;2022-09-03T02:45:19;101428.34;;;26.86;60.55
250;BME280;109;19.806;-70.704;2022-09-03T02:47:55;101429.59;;;26.79;60.13
250;BME280;109;19.806;-70.704;2022-09-03T02:50:44;101426.38;;;26.90;60.51
250;BME280;109;19.806;-70.704;2022-09-03T02:53:17;101434.03;;;26.80;60.30
250;BME280;109;19.806;-70.704;2022-09-03T02:56:01;101429.22;;;26.87;60.32
250;BME280;109;19.806;-70.704;2022-09-03T02:58:28;101433.56;;;26.90;60.28
250;BME280;109;19.806;-70.704;2022-09-03T03:01:08;101431.44;;;26.96;60.41
250;BME280;109;19.806;-70.704;2022-09-03T03:03:34;101427.41;;;26.88;59.80
250;BME280;109;19.806;-70.704;2022-09-03T03:06:14;101436.09;;;26.93;60.19
250;BME280;109;19.806;-70.704;2022-09-03T03:08:41;101422.69;;;26.93;60.16
250;BME280;109;19.806;-70.704;2022-09-03T03:11:21;101424.72;;;26.88;60.15
250;BME280;109;19.806;-70.704;2022-09-03T03:13:51;101419.13;;;26.92;59.95
250;BME280;109;19.806;-70.704;2022-09-03T03:16:31;101410.13;;;26.93;60.31
250;BME280;109;19.806;-70.704;2022-09-03T03:19:04;101419.91;;;26.94;60.58
250;BME280;109;19.806;-70.704;2022-09-03T03:21:44;101413.41;;;26.81;60.27
250;BME280;109;19.806;-70.704;2022-09-03T03:24:11;101419.59;;;26.83;59.92
250;BME280;109;19.806;-70.704;2022-09-03T03:26:50;101414.22;;;26.83;60.27
250;BME280;109;19.806;-70.704;2022-09-03T03:29:27;101408.22;;;26.78;60.63
250;BME280;109;19.806;-70.704;2022-09-03T03:32:13;101402.69;;;26.81;60.43
250;BME280;109;19.806;-70.704;2022-09-03T03:34:53;101394.47;;;26.84;60.18
250;BME280;109;19.806;-70.704;2022-09-03T03:37:19;101397.78;;;26.89;59.64
250;BME280;109;19.806;-70.704;2022-09-03T03:39:59;101396.91;;;26.89;60.38
250;BME280;109;19.806;-70.704;2022-09-03T03:42:25;101395.91;;;26.91;59.95
250;BME280;109;19.806;-70.704;2022-09-03T03:45:07;101391.47;;;26.90;60.26
250;BME280;109;19.806;-70.704;2022-09-03T03:47:35;101402.69;;;26.98;59.95
250;BME280;109;19.806;-70.704;2022-09-03T03:50:15;101398.03;;;27.02;59.90
250;BME280;109;19.806;-70.704;2022-09-03T03:52:42;101389.19;;;27.00;59.59
250;BME280;109;19.806;-70.704;2022-09-03T03:55:30;101384.69;;;27.00;59.68
250;BME280;109;19.806;-70.704;2022-09-03T03:58:03;101376.69;;;26.99;59.95
250;BME280;109;19.806;-70.704;2022-09-03T04:00:43;101370.38;;;27.00;60.56
250;BME280;109;19.806;-70.704;2022-09-03T04:03:10;101376.34;;;27.05;60.03
250;BME280;109;19.806;-70.704;2022-09-03T04:05:56;101371.63;;;27.10;60.27
250;BME280;109;19.806;-70.704;2022-09-03T04:08:35;101374.22;;;27.11;60.18
250;BME280;109;19.806;-70.704;2022-09-03T04:11:20;101373.19;;;27.14;60.49
250;BME280;109;19.806;-70.704;2022-09-03T04:13:54;101374.75;;;27.18;60.54
250;BME280;109;19.806;-70.704;2022-09-03T04:16:33;101386.47;;;27.17;60.63
250;BME280;109;19.806;-70.704;2022-09-03T04:18:59;101386.78;;;27.11;60.84
250;BME280;109;19.806;-70.704;2022-09-03T04:21:39;101406.41;;;26.44;60.57
250;BME280;109;19.806;-70.704;2022-09-03T04:24:06;101374.75;;;25.97;61.88
250;BME280;109;19.806;-70.704;2022-09-03T04:26:45;101345.94;;;25.82;61.52
250;BME280;109;19.806;-70.704;2022-09-03T04:29:12;101363.69;;;25.86;62.17
250;BME280;109;19.806;-70.704;2022-09-03T04:32:00;101351.47;;;25.79;63.58
250;BME280;109;19.806;-70.704;2022-09-03T04:34:57;101348.28;;;25.71;64.08
250;BME280;109;19.806;-70.704;2022-09-03T04:37:37;101346.03;;;25.80;64.47
250;BME280;109;19.806;-70.704;2022-09-03T04:40:17;101351.25;;;25.84;64.76
250;BME280;109;19.806;-70.704;2022-09-03T04:42:43;101362.13;;;25.80;64.38
250;BME280;109;19.806;-70.704;2022-09-03T04:45:24;101370.63;;;25.71;64.44
250;BME280;109;19.806;-70.704;2022-09-03T04:47:59;101366.19;;;25.70;65.78
250;BME280;109;19.806;-70.704;2022-09-03T04:50:41;101368.34;;;25.62;65.50
250;BME280;109;19.806;-70.704;2022-09-03T04:53:07;101358.28;;;25.67;66.10
250;BME280;109;19.806;-70.704;2022-09-03T04:55:47;101355.47;;;25.70;66.21
250;BME280;109;19.806;-70.704;2022-09-03T04:58:14;101352.00;;;25.68;66.20
250;BME280;109;19.806;-70.704;2022-09-03T05:00:53;101343.38;;;25.62;65.95
250;BME280;109;19.806;-70.704;2022-09-03T05:03:20;101339.84;;;25.61;67.33
250;BME280;109;19.806;-70.704;2022-09-03T05:06:02;101341.00;;;25.56;66.62
250;BME280;109;19.806;-70.704;2022-09-03T05:08:31;101339.66;;;25.64;66.80
250;BME280;109;19.806;-70.704;2022-09-03T05:11:11;101332.56;;;25.63;66.87
250;BME280;109;19.806;-70.704;2022-09-03T05:13:39;101333.38;;;25.65;66.72
250;BME280;109;19.806;-70.704;2022-09-03T05:16:21;101327.00;;;25.68;67.12
250;BME280;109;19.806;-70.704;2022-09-03T05:18:51;101333.00;;;25.73;66.79
250;BME280;109;19.806;-70.704;2022-09-03T05:21:33;101313.44;;;25.71;67.24
250;BME280;109;19.806;-70.704;2022-09-03T05:24:09;101319.75;;;25.70;67.54
250;BME280;109;19.806;-70.704;2022-09-03T05:26:50;101308.44;;;25.63;66.91
250;BME280;109;19.806;-70.704;2022-09-03T05:29:16;101306.34;;;25.70;67.26
250;BME280;109;19.806;-70.704;2022-09-03T05:32:04;101315.25;;;25.70;67.90
250;BME280;109;19.806;-70.704;2022-09-03T05:34:38;101309.81;;;25.72;68.00
250;BME280;109;19.806;-70.704;2022-09-03T05:37:17;101298.91;;;25.75;67.91
250;BME280;109;19.806;-70.704;2022-09-03T05:39:57;101305.88;;;25.79;67.87
250;BME280;109;19.806;-70.704;2022-09-03T05:42:23;101304.53;;;25.70;67.84
250;BME280;109;19.806;-70.704;2022-09-03T05:45:07;101298.38;;;25.68;68.33
250;BME280;109;19.806;-70.704;2022-09-03T05:47:51;101288.72;;;25.64;68.38
250;BME280;109;19.806;-70.704;2022-09-03T05:50:31;101297.97;;;25.59;68.39
250;BME280;109;19.806;-70.704;2022-09-03T05:52:57;101286.50;;;25.55;67.96
250;BME280;109;19.806;-70.704;2022-09-03T05:55:38;101286.59;;;25.54;68.03
250;BME280;109;19.806;-70.704;2022-09-03T05:58:04;101283.28;;;25.49;68.63
250;BME280;109;19.806;-70.704;2022-09-03T06:00:44;101287.97;;;25.43;68.46
250;BME280;109;19.806;-70.704;2022-09-03T06:03:10;101280.22;;;25.37;68.23
250;BME280;109;19.806;-70.704;2022-09-03T06:05:53;101275.97;;;25.33;68.66
250;BME280;109;19.806;-70.704;2022-09-03T06:08:20;101264.63;;;25.27;68.23
250;BME280;109;19.806;-70.704;2022-09-03T06:11:01;101264.22;;;25.17;68.48
250;BME280;109;19.806;-70.704;2022-09-03T06:13:29;101257.72;;;25.23;68.29
250;BME280;109;19.806;-70.704;2022-09-03T06:16:09;101266.75;;;25.20;68.77
250;BME280;109;19.806;-70.704;2022-09-03T06:18:35;101258.66;;;25.22;68.91
250;BME280;109;19.806;-70.704;2022-09-03T06:21:16;101258.72;;;25.20;68.58
250;BME280;109;19.806;-70.704;2022-09-03T06:23:42;101264.16;;;25.19;68.84
250;BME280;109;19.806;-70.704;2022-09-03T06:26:31;101248.28;;;25.14;68.13
250;BME280;109;19.806;-70.704;2022-09-03T06:29:04;101245.09;;;25.06;67.98
250;BME280;109;19.806;-70.704;2022-09-03T06:31:51;101244.25;;;25.05;68.32
250;BME280;109;19.806;-70.704;2022-09-03T06:34:30;101239.09;;;25.01;67.68
250;BME280;109;19.806;-70.704;2022-09-03T06:37:10;101236.28;;;25.04;68.19
250;BME280;109;19.806;-70.704;2022-09-03T06:39:51;101234.53;;;25.03;67.54
250;BME280;109;19.806;-70.704;2022-09-03T06:42:17;101228.72;;;25.12;68.12
250;BME280;109;19.806;-70.704;2022-09-03T06:44:58;101228.72;;;25.12;68.60
250;BME280;109;19.806;-70.704;2022-09-03T06:47:24;101236.13;;;25.07;68.18
250;BME280;109;19.806;-70.704;2022-09-03T06:50:12;101230.59;;;25.10;68.16
250;BME280;109;19.806;-70.704;2022-09-03T06:52:50;101230.91;;;25.04;68.61
250;BME280;109;19.806;-70.704;2022-09-03T06:55:30;101224.19;;;24.95;68.61
250;BME280;109;19.806;-70.704;2022-09-03T06:57:56;101217.91;;;24.96;68.03
250;BME280;109;19.806;-70.704;2022-09-03T07:00:36;101228.00;;;24.90;68.33
250;BME280;109;19.806;-70.704;2022-09-03T07:03:02;101227.75;;;24.96;67.66
250;BME280;109;19.806;-70.704;2022-09-03T07:05:42;101225.41;;;24.88;68.56
250;BME280;109;19.806;-70.704;2022-09-03T07:08:10;101222.47;;;24.94;67.49
250;BME280;109;19.806;-70.704;2022-09-03T07:10:49;101210.34;;;24.86;67.64
250;BME280;109;19.806;-70.704;2022-09-03T07:13:16;101217.16;;;24.93;68.21
250;BME280;109;19.806;-70.704;2022-09-03T07:16:04;101208.47;;;24.88;68.02
250;BME280;109;19.806;-70.704;2022-09-03T07:18:39;101214.44;;;24.94;67.57
250;BME280;109;19.806;-70.704;2022-09-03T07:21:21;101219.13;;;24.89;68.06
250;BME280;109;19.806;-70.704;2022-09-03T07:23:49;101210.28;;;24.87;67.68
250;BME280;109;19.806;-70.704;2022-09-03T07:26:31;101212.03;;;24.88;67.71
250;BME280;109;19.806;-70.704;2022-09-03T07:29:05;101214.19;;;24.80;67.83
250;BME280;109;19.806;-70.704;2022-09-03T07:31:53;101213.53;;;24.75;68.25
250;BME280;109;19.806;-70.704;2022-09-03T07:34:32;101217.00;;;24.77;68.34
250;BME280;109;19.806;-70.704;2022-09-03T07:37:12;101210.94;;;24.73;68.61
250;BME280;109;19.806;-70.704;2022-09-03T07:39:52;101202.81;;;24.75;68.41
250;BME280;109;19.806;-70.704;2022-09-03T07:42:19;101207.09;;;24.79;68.29
250;BME280;109;19.806;-70.704;2022-09-03T07:45:04;101204.56;;;24.76;67.92
250;BME280;109;19.806;-70.704;2022-09-03T07:47:30;101206.56;;;24.71;68.26
250;BME280;109;19.806;-70.704;2022-09-03T07:50:13;101201.97;;;24.74;68.18
250;BME280;109;19.806;-70.704;2022-09-03T07:52:41;101203.69;;;24.75;68.41
250;BME280;109;19.806;-70.704;2022-09-03T07:55:20;101207.31;;;24.74;68.34
250;BME280;109;19.806;-70.704;2022-09-03T07:57:47;101206.66;;;24.69;68.40
250;BME280;109;19.806;-70.704;2022-09-03T08:00:26;101193.84;;;24.76;68.12
250;BME280;109;19.806;-70.704;2022-09-03T08:02:53;101191.03;;;24.79;67.82
250;BME280;109;19.806;-70.704;2022-09-03T08:05:37;101206.03;;;24.83;68.41
250;BME280;109;19.806;-70.704;2022-09-03T08:08:10;101196.25;;;24.82;68.10
250;BME280;109;19.806;-70.704;2022-09-03T08:10:49;101202.38;;;24.84;68.12
250;BME280;109;19.806;-70.704;2022-09-03T08:13:16;101207.91;;;24.81;67.91
250;BME280;109;19.806;-70.704;2022-09-03T08:15:55;101195.66;;;24.75;67.96
250;BME280;109;19.806;-70.704;2022-09-03T08:18:24;101207.25;;;24.76;68.01
250;BME280;109;19.806;-70.704;2022-09-03T08:21:12;101196.03;;;24.87;67.71
250;BME280;109;19.806;-70.704;2022-09-03T08:23:50;101205.16;;;24.83;67.80
250;BME280;109;19.806;-70.704;2022-09-03T08:26:39;101212.75;;;24.92;68.16
250;BME280;109;19.806;-70.704;2022-09-03T08:29:23;101212.88;;;24.89;67.98
250;BME280;109;19.806;-70.704;2022-09-03T08:32:09;101216.09;;;24.97;68.12
250;BME280;109;19.806;-70.704;2022-09-03T08:34:48;101218.09;;;24.92;68.34
250;BME280;109;19.806;-70.704;2022-09-03T08:37:28;101214.69;;;24.88;67.85
250;BME280;109;19.806;-70.704;2022-09-03T08:40:08;101220.78;;;24.92;67.64
250;BME280;109;19.806;-70.704;2022-09-03T08:45:19;101219.59;;;24.97;68.17
250;BME280;109;19.806;-70.704;2022-09-03T08:48:01;101233.97;;;24.96;67.90
250;BME280;109;19.806;-70.704;2022-09-03T08:50:47;101228.22;;;24.85;67.71
250;BME280;109;19.806;-70.704;2022-09-03T08:56:31;101222.81;;;24.87;67.82
250;BME280;109;19.806;-70.704;2022-09-03T08:59:01;101233.50;;;24.87;67.95
250;BME280;109;19.806;-70.704;2022-09-03T09:01:57;101243.00;;;24.94;67.93
250;BME280;109;19.806;-70.704;2022-09-03T09:07:38;101247.75;;;24.87;67.44
250;BME280;109;19.806;-70.704;2022-09-03T09:10:43;101244.38;;;24.84;67.60
250;BME280;109;19.806;-70.704;2022-09-03T09:13:33;101246.91;;;24.87;68.10
250;BME280;109;19.806;-70.704;2022-09-03T09:16:24;101252.91;;;24.92;67.91
250;BME280;109;19.806;-70.704;2022-09-03T09:19:23;101247.63;;;24.90;68.26
250;BME280;109;19.806;-70.704;2022-09-03T09:22:27;101254.78;;;24.90;68.16
250;BME280;109;19.806;-70.704;2022-09-03T09:25:19;101250.56;;;24.84;68.09
250;BME280;109;19.806;-70.704;2022-09-03T09:30:37;101258.34;;;24.90;68.52
250;BME280;109;19.806;-70.704;2022-09-03T09:33:06;101259.88;;;24.96;68.13
250;BME280;109;19.806;-70.704;2022-09-03T09:35:52;101263.19;;;25.01;68.33
250;BME280;109;19.806;-70.704;2022-09-03T09:38:31;101260.25;;;25.07;68.31
250;BME280;109;19.806;-70.704;2022-09-03T09:41:19;101261.91;;;25.09;68.38
250;BME280;109;19.806;-70.704;2022-09-03T09:44:02;101272.63;;;25.09;68.25
250;BME280;109;19.806;-70.704;2022-09-03T09:46:43;101269.94;;;25.09;68.42
250;BME280;109;19.806;-70.704;2022-09-03T09:49:36;101279.34;;;25.18;68.15
250;BME280;109;19.806;-70.704;2022-09-03T09:52:18;101277.41;;;25.22;68.30
250;BME280;109;19.806;-70.704;2022-09-03T09:55:14;101282.16;;;25.15;68.66
250;BME280;109;19.806;-70.704;2022-09-03T09:57:47;101281.22;;;25.16;68.51
250;BME280;109;19.806;-70.704;2022-09-03T10:00:32;101292.00;;;25.15;68.69
250;BME280;109;19.806;-70.704;2022-09-03T10:03:00;101284.97;;;25.12;68.32
250;BME280;109;19.806;-70.704;2022-09-03T10:05:40;101298.81;;;25.03;68.65
250;BME280;109;19.806;-70.704;2022-09-03T10:08:19;101297.50;;;25.11;68.58
250;BME280;109;19.806;-70.704;2022-09-03T10:10:59;101296.94;;;25.05;68.38
250;BME280;109;19.806;-70.704;2022-09-03T10:13:38;101299.69;;;25.03;68.43
250;BME280;109;19.806;-70.704;2022-09-03T10:16:27;101302.34;;;25.03;68.12
250;BME280;109;19.806;-70.704;2022-09-03T10:19:10;101307.91;;;24.99;68.47
250;BME280;109;19.806;-70.704;2022-09-03T10:22:16;101311.75;;;24.93;68.16
250;BME280;109;19.806;-70.704;2022-09-03T10:24:58;101316.50;;;24.87;68.51
250;BME280;109;19.806;-70.704;2022-09-03T10:27:35;101322.81;;;24.86;68.45
250;BME280;109;19.806;-70.704;2022-09-03T10:30:17;101323.84;;;24.83;68.19
250;BME280;109;19.806;-70.704;2022-09-03T10:35:45;101315.00;;;24.81;68.22
250;BME280;109;19.806;-70.704;2022-09-03T10:38:32;101308.47;;;24.87;68.40
250;BME280;109;19.806;-70.704;2022-09-03T10:41:48;101315.94;;;24.99;68.25
250;BME280;109;19.806;-70.704;2022-09-03T10:44:59;101306.03;;;25.01;68.42
250;BME280;109;19.806;-70.704;2022-09-03T10:47:52;101316.63;;;25.04;68.39
250;BME280;109;19.806;-70.704;2022-09-03T10:50:46;101315.75;;;25.03;67.92
250;BME280;109;19.806;-70.704;2022-09-03T10:54:07;101318.22;;;25.08;68.32
250;BME280;109;19.806;-70.704;2022-09-03T11:00:07;101320.91;;;25.27;67.72
250;BME280;109;19.806;-70.704;2022-09-03T11:05:59;101325.69;;;25.39;67.83
250;BME280;109;19.806;-70.704;2022-09-03T11:11:16;101327.66;;;25.54;66.90
250;BME280;109;19.806;-70.704;2022-09-03T11:14:08;101316.88;;;25.56;66.43
250;BME280;109;19.806;-70.704;2022-09-03T11:16:48;101318.81;;;25.71;66.97
250;BME280;109;19.806;-70.704;2022-09-03T11:19:40;101324.31;;;25.87;66.11
250;BME280;109;19.806;-70.704;2022-09-03T11:22:23;101329.00;;;26.00;65.99
250;BME280;109;19.806;-70.704;2022-09-03T11:24:57;101336.44;;;26.12;65.55
250;BME280;109;19.806;-70.704;2022-09-03T11:30:10;101336.34;;;26.31;64.91
250;BME280;109;19.806;-70.704;2022-09-03T11:32:58;101331.97;;;26.47;65.01
250;BME280;109;19.806;-70.704;2022-09-03T11:38:21;101344.00;;;26.73;64.60
250;BME280;109;19.806;-70.704;2022-09-03T11:41:14;101341.47;;;26.88;64.24
250;BME280;109;19.806;-70.704;2022-09-03T11:44:17;101347.94;;;27.01;63.43
250;BME280;109;19.806;-70.704;2022-09-03T11:46:58;101339.44;;;27.08;64.12
250;BME280;109;19.806;-70.704;2022-09-03T11:49:31;101331.00;;;27.16;63.45
250;BME280;109;19.806;-70.704;2022-09-03T11:52:11;101339.75;;;27.35;63.67
250;BME280;109;19.806;-70.704;2022-09-03T11:54:45;101335.06;;;27.39;62.89
250;BME280;109;19.806;-70.704;2022-09-03T11:57:30;101337.19;;;27.49;62.65
250;BME280;109;19.806;-70.704;2022-09-03T12:00:12;101344.06;;;27.55;61.84
250;BME280;109;19.806;-70.704;2022-09-03T12:03:01;101347.94;;;27.49;61.20
250;BME280;109;19.806;-70.704;2022-09-03T12:09:13;101352.38;;;27.66;60.52
250;BME280;109;19.806;-70.704;2022-09-03T12:15:11;101359.91;;;27.91;59.62
250;BME280;109;19.806;-70.704;2022-09-03T12:18:11;101363.81;;;28.01;59.18
250;BME280;109;19.806;-70.704;2022-09-03T12:23:44;101365.28;;;28.37;58.66
250;BME280;109;19.806;-70.704;2022-09-03T12:26:18;101363.38;;;28.39;58.56
250;BME280;109;19.806;-70.704;2022-09-03T12:28:59;101371.28;;;28.42;58.35
250;BME280;109;19.806;-70.704;2022-09-03T12:31:30;101370.94;;;28.48;58.61
250;BME280;109;19.806;-70.704;2022-09-03T12:34:14;101361.72;;;28.52;58.17
250;BME280;109;19.806;-70.704;2022-09-03T12:36:43;101362.41;;;28.40;57.77
250;BME280;109;19.806;-70.704;2022-09-03T12:39:19;101361.47;;;28.71;58.20
250;BME280;109;19.806;-70.704;2022-09-03T12:47:10;101348.00;;;28.71;57.49
250;BME280;109;19.806;-70.704;2022-09-03T12:49:40;101352.25;;;28.89;57.72
250;BME280;109;19.806;-70.704;2022-09-03T12:57:48;101355.69;;;28.77;56.89
250;BME280;109;19.806;-70.704;2022-09-03T13:00:17;101354.19;;;28.73;56.61
250;BME280;109;19.806;-70.704;2022-09-03T13:02:59;101356.47;;;28.93;56.99
250;BME280;109;19.806;-70.704;2022-09-03T13:05:52;101363.16;;;29.02;57.13
250;BME280;109;19.806;-70.704;2022-09-03T13:08:25;101360.00;;;29.09;57.21
250;BME280;109;19.806;-70.704;2022-09-03T13:10:59;101356.63;;;29.06;56.50
250;BME280;109;19.806;-70.704;2022-09-03T13:13:30;101366.91;;;29.13;56.98
250;BME280;109;19.806;-70.704;2022-09-03T13:19:18;101361.59;;;29.40;56.56
250;BME280;109;19.806;-70.704;2022-09-03T13:29:14;101368.34;;;29.33;55.93
250;BME280;109;19.806;-70.704;2022-09-03T13:31:59;101370.00;;;29.21;56.41
250;BME280;109;19.806;-70.704;2022-09-03T13:34:37;101368.84;;;29.25;56.50
250;BME280;109;19.806;-70.704;2022-09-03T13:39:58;101378.72;;;29.39;56.00
250;BME280;109;19.806;-70.704;2022-09-03T13:45:02;101379.41;;;29.43;55.40
250;BME280;109;19.806;-70.704;2022-09-03T13:47:38;101388.97;;;29.48;55.49
250;BME280;109;19.806;-70.704;2022-09-03T13:50:28;101379.13;;;29.33;55.80
250;BME280;109;19.806;-70.704;2022-09-03T13:55:55;101376.72;;;29.57;55.34
250;BME280;109;19.806;-70.704;2022-09-03T13:58:42;101370.81;;;29.64;55.70
250;BME280;109;19.806;-70.704;2022-09-03T14:01:33;101382.09;;;29.71;55.26
250;BME280;109;19.806;-70.704;2022-09-03T14:04:13;101379.19;;;29.74;55.29
250;BME280;109;19.806;-70.704;2022-09-03T14:06:50;101384.66;;;29.87;55.71
250;BME280;109;19.806;-70.704;2022-09-03T14:09:50;101391.00;;;29.86;54.11
250;BME280;109;19.806;-70.704;2022-09-03T14:15:31;101392.06;;;29.83;54.65
250;BME280;109;19.806;-70.704;2022-09-03T14:21:02;101393.22;;;29.79;54.33
250;BME280;109;19.806;-70.704;2022-09-03T14:23:33;101398.19;;;30.14;55.23
250;BME280;109;19.806;-70.704;2022-09-03T14:26:04;101395.81;;;29.95;54.59
250;BME280;109;19.806;-70.704;2022-09-03T14:28:37;101398.44;;;29.96;54.92
250;BME280;109;19.806;-70.704;2022-09-03T14:31:23;101392.94;;;29.98;54.32
250;BME280;109;19.806;-70.704;2022-09-03T14:34:15;101395.53;;;29.99;53.67
250;BME280;109;19.806;-70.704;2022-09-03T14:37:08;101407.56;;;29.94;54.13
250;BME280;109;19.806;-70.704;2022-09-03T14:39:58;101396.94;;;30.05;54.13
250;BME280;109;19.806;-70.704;2022-09-03T14:53:39;101411.41;;;30.31;54.70
250;BME280;109;19.806;-70.704;2022-09-03T14:58:58;101408.19;;;29.71;54.46
250;BME280;109;19.806;-70.704;2022-09-03T15:01:34;101404.78;;;29.81;54.97
250;BME280;109;19.806;-70.704;2022-09-03T15:04:37;101399.03;;;29.73;54.09
250;BME280;109;19.806;-70.704;2022-09-03T15:07:41;101401.47;;;29.63;54.66
250;BME280;109;19.806;-70.704;2022-09-03T15:18:23;101413.00;;;29.80;55.81
250;BME280;109;19.806;-70.704;2022-09-03T15:20:53;101419.31;;;30.07;54.59
250;BME280;109;19.806;-70.704;2022-09-03T15:23:45;101410.91;;;30.12;54.31
250;BME280;109;19.806;-70.704;2022-09-03T15:40:08;101415.28;;;30.00;54.30
250;BME280;109;19.806;-70.704;2022-09-03T15:42:37;101408.25;;;29.97;55.59
250;BME280;109;19.806;-70.704;2022-09-03T15:45:18;101414.78;;;30.08;54.78
250;BME280;109;19.806;-70.704;2022-09-03T15:47:51;101412.13;;;30.20;54.95
250;BME280;109;19.806;-70.704;2022-09-03T15:50:34;101406.84;;;30.31;54.89
250;BME280;109;19.806;-70.704;2022-09-03T16:02:19;101406.09;;;29.76;54.82
250;BME280;109;19.806;-70.704;2022-09-03T16:12:43;101388.75;;;30.07;54.73
250;BME280;109;19.806;-70.704;2022-09-03T16:15:21;101381.00;;;30.15;54.67
250;BME280;109;19.806;-70.704;2022-09-03T16:17:51;101378.03;;;30.32;54.20
250;BME280;109;19.806;-70.704;2022-09-03T16:23:11;101369.59;;;30.24;52.90
250;BME280;109;19.806;-70.704;2022-09-03T16:28:28;101360.63;;;30.63;53.10
250;BME280;109;19.806;-70.704;2022-09-03T16:34:19;101354.06;;;30.40;52.26
250;BME280;109;19.806;-70.704;2022-09-03T16:39:40;101343.72;;;30.47;53.72
250;BME280;109;19.806;-70.704;2022-09-03T16:45:47;101347.97;;;30.51;53.11
250;BME280;109;19.806;-70.704;2022-09-03T17:10:45;101327.59;;;29.79;54.41
250;BME280;109;19.806;-70.704;2022-09-03T17:13:35;101320.66;;;29.62;55.42
250;BME280;109;19.806;-70.704;2022-09-03T17:18:46;101319.81;;;29.47;55.00
250;BME280;109;19.806;-70.704;2022-09-03T17:26:32;101313.56;;;29.47;55.49
250;BME280;109;19.806;-70.704;2022-09-03T17:29:23;101306.69;;;29.82;56.42
250;BME280;109;19.806;-70.704;2022-09-03T17:40:07;101296.50;;;29.46;56.49
250;BME280;109;19.806;-70.704;2022-09-03T17:45:49;101290.00;;;29.90;54.94
250;BME280;109;19.806;-70.704;2022-09-03T17:48:25;101286.03;;;29.69;55.20
250;BME280;109;19.806;-70.704;2022-09-03T17:51:04;101286.16;;;29.80;55.66
250;BME280;109;19.806;-70.704;2022-09-03T18:04:47;101253.44;;;29.98;56.05
250;BME280;109;19.806;-70.704;2022-09-03T18:09:54;101248.41;;;29.80;56.39
250;BME280;109;19.806;-70.704;2022-09-03T18:15:33;101226.38;;;29.73;56.29
250;BME280;109;19.806;-70.704;2022-09-03T18:18:08;101237.53;;;29.54;56.26
250;BME280;109;19.806;-70.704;2022-09-03T18:20:50;101221.84;;;29.74;56.30